Saint Médard d'Aunis (17)                   Septembre 2020                              
  Température (°C) - Abri Young à ventilation mécanique 43502 Humidité Vent (km/h) PeetBros Précipitations (mm) Pression (hPa) Divers  
Date Maxi Mini Moy de 1440 relevés Moy (tx+tn)/2 Index chaleur moyen Index chaleur maxi Froid dû au vent moy  Froid dû au vent mini/1min   Amplitude (Tx-Tn) Tx OMM/1min Tn OMM/1min Tm OMM/1min Relative maxi Relative mini Relative moy de 1440 relevés Relative moy (hx+hn)/2 Point de rosée maxi Point de rosée mini Point de rosée moy 1440 relevés Vent moy maxi (10min) Vent  moyen (24h) Direction dominante Rafales (km/h) maxi Direction rafale maxi Rafales moy (24h) Rafales (km/h)   maxi Total du jour (mm) Durée en heures et dixièmes Intensité maxi sur 1 min (mm/h) Maxi Mini Moy de 1440 relevés Moy (px+pn)/2 Variation Epaisseur neige (cm) Remarques diverses    
01/09/2020 24,3 9,6 16,87 16,95 16,56 23,8 16,70 9,6 14,7 24,3 9,6 16,95 93% 38% 66,9% 65,5% 12,8 8,1 9,94 16,10 7,28 NE 27,4 NE 10,15 * 0,0 0,0 0,0 1019,0 1016,4 1017,89 1017,70 2,6   Ciel entre 0/8 et 5/8  
02/09/2020 24,8 8,5 16,89 16,65 16,71 24,3 16,43 7,8 16,3 24,8 8,5 16,65 92% 37% 68,7% 64,5% 13,5 7,1 10,54 24,91 9,74 N 35,4 WNW 13,07 * 0,0 0,0 0,0 1022,2 1018,4 1019,93 1020,30 3,8   Ciel entre 0/8 et 1/8  
03/09/2020 26,7 8,7 17,68 17,70 17,60 26,4 17,58 8,7 18,0 26,7 8,7 17,70 94% 40% 70,2% 67,0% 14,3 7,8 11,44 16,10 5,69 NNE 24,1 W 7,75 * 0,0 0,0 0,0 1023,8 1021,2 1022,61 1022,50 2,6   Ciel entre 0/8 et 1/8  
04/09/2020 30,8 10,6 20,90 20,70 20,80 30,3 20,81 10,1 20,2 30,7 10,7 20,70 94% 31% 63,1% 62,5% 15,8 9,6 12,45 16,58 7,77 NNE 24,1 WNW 10,64 * 0,0 0,0 0,0 1023,7 1019,3 1021,51 1021,50 4,4   Ciel 0/8  
05/09/2020 22,9 13,2 18,28 18,05 18,34 22,9 17,37 12,0 9,7 22,9 13,3 18,10 91% 50% 74,9% 70,5% 15,8 9,4 13,55 22,18 14,20 N 30,6 NNE 18,42 * 0,0 0,0 0,0 1024,0 1020,1 1022,47 1022,05 3,9   Ciel 1/8 à 7/8 le matin, 6/8 à 2/8 l'après-midi  
06/09/2020 21,4 12,2 16,34 16,80 15,91 20,1 15,60 11,3 9,2 21,3 12,2 16,75 86% 44% 66,0% 65,0% 11,5 7,7 9,72 24,29 12,12 N 37,0 W 16,17 * 0,0 0,0 0,0 1023,8 1021,9 1022,92 1022,85 1,9   Ciel 0/8 le matin, entre 0/8 et 5/8 l'après-midi  
07/09/2020 23,9 9,5 16,71 16,70 16,57 23,6 16,12 8,8 14,4 23,9 9,5 16,70 93% 40% 71,7% 66,5% 14,1 8,3 11,04 24,12 10,27 N 35,4 W 13,85 * 0,0 0,0 0,0 1027,3 1023,5 1025,45 1025,40 3,8   Ciel entre 0/8 et 1/8  
08/09/2020 27,6 10,6 18,92 19,10 18,80 26,8 18,75 10,1 17,0 27,6 10,7 19,15 93% 34% 68,2% 63,5% 15,1 9,4 11,99 15,94 8,11 NNE 27,4 NE 11,22 * 0,0 0,0 0,0 1028,6 1024,2 1026,24 1026,40 4,4   Ciel entre 0/8 et 1/8  
09/09/2020 30,2 8,7 20,78 19,45 20,63 29,6 20,55 8,1 21,5 30,2 8,7 19,45 93% 27% 61,9% 60,0% 16,2 7,5 11,91 17,54 8,99 NE 27,4 NE 12,05 * 0,0 0,0 0,0 1024,4 1020,8 1022,74 1022,60 3,6   Ciel 0/8 le matin, entre 0/8 et 3/8 l'après-midi  
10/09/2020 28,7 16,2 21,83 22,45 22,20 29,2 21,48 16,3 12,5 28,6 16,3 22,45 88% 46% 68,9% 67,0% 17,1 13,4 15,50 22,34 11,65 N 32,2 NNW 15,19 * 0,0 0,0 0,0 1022,0 1017,8 1019,84 1019,90 4,2   Ciel entre 0/8 et 2/8  
11/09/2020 26,5 13,6 19,49 20,05 19,79 26,7 19,30 13,6 12,9 26,4 13,6 20,00 95% 51% 77,9% 73,0% 17,6 12,7 15,16 18,82 8,17 W 27,4 WSW 10,94 * 0,0 0,0 0,0 1018,3 1016,6 1017,34 1017,45 1,7   Ciel 0/8  
12/09/2020 28,3 10,8 18,65 19,55 18,62 28,3 18,52 9,8 17,5 28,3 10,8 19,55 96% 39% 71,6% 67,5% 15,4 9,9 12,67 17,06 6,56 WNW 25,7 SSW 8,81 * 0,0 0,0 0,0 1023,1 1017,9 1020,72 1020,50 5,2   Ciel 0/8  
13/09/2020 32,1 9,4 20,70 20,75 20,42 31,6 20,66 8,8 22,7 32,1 9,4 20,75 92% 28% 61,4% 60,0% 15,1 8,0 11,66 15,30 6,91 NE 25,7 SE 9,53 * 0,0 0,0 0,0 1023,5 1019,5 1021,51 1021,50 4,0   Ciel 0/8  
14/09/2020 33,9 13,5 23,77 23,70 23,66 34,2 23,50 13,5 20,4 33,9 13,5 23,70 79% 31% 54,4% 55,0% 15,8 9,3 13,16 22,83 11,41 ESE 40,2 S 15,69 * 0,0 0,0 0,0 1019,7 1017,1 1018,15 1018,40 2,6   Ciel 0/8 à 1/8  
15/09/2020 24,7 14,4 19,39 19,55 20,12 26,4 19,34 14,4 10,3 24,6 14,4 19,50 96% 67% 88,6% 81,5% 21,9 12,6 17,41 15,78 5,86 WSW 24,1 S 8,00 * 0,4 0,2 12,0 1020,4 1017,5 1019,05 1018,95 2,9   Brouillard, ciel 1/8 à 8/8 le matin, 8/8 l'après-midi, faible pluie, 3/8 le soir  
16/09/2020 30,4 13,6 21,18 22,00 21,62 30,6 21,17 13,6 16,8 30,4 13,6 22,00 98% 38% 75,9% 68,0% 21,9 13,1 15,92 13,38 3,56 WNW 19,3 NW 5,11 * 0,2 0,1 12,0 1020,8 1017,7 1019,38 1019,25 3,1   Brouillard, ciel 4/8 à 0/8  
17/09/2020 33,2 16,2 25,12 24,70 25,21 33,1 24,78 16,3 17,0 33,2 16,3 24,75 90% 31% 56,4% 60,5% 17,8 12,3 14,63 25,43 13,50 ENE 45,1 NE 19,36 * 0,0 0,0 0,0 1018,4 1012,9 1015,71 1015,65 5,5   Ciel entre 0/8 et 1/8  
18/09/2020 26,6 18,9 22,47 22,75 22,73 26,8 22,26 18,0 7,7 26,6 18,9 22,75 88% 51% 64,8% 69,5% 18,3 12,7 15,37 17,86 9,21 ENE 33,8 ENE 13,47 * 0,6 0,3 12,0 1013,1 1011,2 1012,16 1012,15 1,9   Ciel 0/8 à 3/8 le matin, 3/8 à 8/8 ensuite, pluie en soirée  
19/09/2020 26,7 16,4 21,03 21,55 21,73 27,1 20,88 15,8 10,3 26,7 16,4 21,55 95% 55% 80,9% 75,0% 20,5 14,9 17,39 19,30 8,20 E 29,0 S 11,54 * 3,6 1,3 12,0 1013,0 1010,0 1011,44 1011,50 3,0   Ciel 8/8 à 6/8 le matin, pluie, 6/8 à 5/8 l'après-midi  
20/09/2020 25,5 15,1 19,52 20,30 20,09 26,0 19,39 15,1 10,4 25,5 15,1 20,30 94% 59% 84,1% 76,5% 18,7 13,9 16,60 26,87 6,28 NW 40,2 WNW 8,80 * 0,0 0,0 0,0 1016,3 1012,5 1014,40 1014,40 3,8   Ciel 6/8 à 3/8 le matin, entre 1/8 et 8/8 l'après-midi, tr de précip., tonnerre  
21/09/2020 25,0 16,8 19,58 20,90 20,24 25,7 19,28 15,1 8,2 25,0 16,8 20,90 95% 63% 86,8% 79,0% 19,1 15,7 17,20 22,02 8,26 WNW 30,6 WNW 10,99 * 2,4 0,9 12,0 1017,3 1015,4 1016,26 1016,35 1,9   Ciel entre 5/8 et 8/8, pluie et orage le soir  
22/09/2020 23,3 12,3 17,69 17,80 18,04 24,1 17,33 12,3 11,0 23,3 12,3 17,80 97% 66% 87,0% 81,5% 17,7 11,7 15,34 22,18 8,05 WSW 30,6 W 10,34 * 0,0 0,0 0,0 1016,2 1011,1 1013,59 1013,65 5,1   Ciel entre 2/8 et 6/8 le matin, 6/8 à 1/8 ensuite  
                                                                           
                                                                           
                                                                           
                                                                           
                                                                           
                                                                           
                                                                           
                                                                           
                                                                           
  Température (°C) - Abri Young à ventilation mécanique 43502 Humidité Vent (km/h) PeetBros Précipitations (mm) Pression (hPa) Divers  
  Maxi Mini Moy de 1440 relevés Moy (tx+tn)/2 Index chaleur moyen Index chaleur maxi Froid dû au vent moy  Froid dû au vent mini/1min   Amplitude (Tx-Tn) Tx OMM/1min Tn OMM/1min Tm OMM/1min Relative maxi Relative mini Relative moy de 1440 relevés Relative moy (hx+hn)/2 Point de rosée maxi Point de rosée mini Point de rosée moy 1440 relevés Vent moy maxi (10min) Vent  moyen (24h) Direction dominante Rafales (km/h) maxi Direction rafale maxi Rafales moy (24h) Rafales (km/h)   maxi Total du jour (mm) Durée en heures et dixièmes Intensité maxi sur 1 min (mm/h) Maxi Mini Moy de 1440 relevés Moy (px+pn)/2 Variation Epaisseur neige (cm) Remarques diverses  
Maxi 33,9 18,9 25,12 24,70 25,21 34,2 24,78 18,0 22,7 33,9 18,9 24,75 98% 67% 88,6% 81,5% 21,9 15,7 17,41 26,87 14,20 N 45,1 NE 19,36 0,0 3,6 1,3 12,0 1028,6 1024,2 1026,24 1026,40 5,5 0,0    
Mini 21,4 8,5 16,34 16,65 15,91 20,1 15,60 7,8 7,7 21,3 8,5 16,65 79% 27% 54,4% 55,0% 11,5 7,1 9,72 13,38 3,56   19,3   5,11 0,0       1013,0 1010,0 1011,44 1011,50 1,7      
Moy 27,16 12,67 19,72 19,92 19,84 27,16 19,45 12,23 14,49 27,14 12,70 19,92 92,4% 43,9% 71,4% 68,1% 16,64 10,69 13,66 19,86 8,72   30,58   11,87 #DIV/0!       1020,86 1017,41 1019,15 1019,13 3,45      
Total                                                     7,2 2,7             0,0    
   
  Observations        
Jours Rafales >= 36,0 km/h Rafales >= 57,6 km/h Rafales >= 75,6 km/h Rafales >= 100,8 km/h Précipi. >= 0,1 mm Précipi. >= 1,0 mm Précipi. >= 5,0 mm Précipi. >= 10,0 mm Tx <= 0 Tx <= -5 Tx <= -10 Tx >= 25 Tx >= 30 Tx >= 35 Tx >= 40 Tn <= 0 Tn <= -5 Tn <= -10 Tn <= -15 Tn <= -20 T moy <= 0 T moy <=     -5 T moy <=     -10 T moy >= 20 T moy >= 25 T moy >= 30 Grêle Grésil Brouillard Brume Orage Neige        
01/09/2020 0 0 0 0 0 0 0 0 0 0 0 0 0 0 0 0 0 0 0 0 0 0 0 0 0 0 0 0 0 0 0 0    
02/09/2020 0 0 0 0 0 0 0 0 0 0 0 0 0 0 0 0 0 0 0 0 0 0 0 0 0 0 0 0 0 0 0 0    
03/09/2020 0 0 0 0 0 0 0 0 0 0 0 1 0 0 0 0 0 0 0 0 0 0 0 0 0 0 0 0 0 0 0 0    
04/09/2020 0 0 0 0 0 0 0 0 0 0 0 1 1 0 0 0 0 0 0 0 0 0 0 0 0 0 0 0 0 0 0 0    
05/09/2020 0 0 0 0 0 0 0 0 0 0 0 0 0 0 0 0 0 0 0 0 0 0 0 0 0 0 0 0 0 0 0 0    
06/09/2020 1 0 0 0 0 0 0 0 0 0 0 0 0 0 0 0 0 0 0 0 0 0 0 0 0 0 0 0 0 0 0 0    
07/09/2020 0 0 0 0 0 0 0 0 0 0 0 0 0 0 0 0 0 0 0 0 0 0 0 0 0 0 0 0 0 0 0 0    
08/09/2020 0 0 0 0 0 0 0 0 0 0 0 1 0 0 0 0 0 0 0 0 0 0 0 0 0 0 0 0 0 0 0 0    
09/09/2020 0 0 0 0 0 0 0 0 0 0 0 1 1 0 0 0 0 0 0 0 0 0 0 0 0 0 0 0 0 0 0 0    
10/09/2020 0 0 0 0 0 0 0 0 0 0 0 1 0 0 0 0 0 0 0 0 0 0 0 0 0 0 0 0 0 0 0 0    
11/09/2020 0 0 0 0 0 0 0 0 0 0 0 1 0 0 0 0 0 0 0 0 0 0 0 0 0 0 0 0 0 0 0 0    
12/09/2020 0 0 0 0 0 0 0 0 0 0 0 1 0 0 0 0 0 0 0 0 0 0 0 0 0 0 0 0 0 0 0 0    
13/09/2020 0 0 0 0 0 0 0 0 0 0 0 1 1 0 0 0 0 0 0 0 0 0 0 0 0 0 0 0 0 0 0 0    
14/09/2020 1 0 0 0 0 0 0 0 0 0 0 1 1 0 0 0 0 0 0 0 0 0 0 0 0 0 0 0 0 0 0 0    
15/09/2020 0 0 0 0 1 0 0 0 0 0 0 0 0 0 0 0 0 0 0 0 0 0 0 0 0 0 0 0 1 0 0 0    
16/09/2020 0 0 0 0 1 0 0 0 0 0 0 1 1 0 0 0 0 0 0 0 0 0 0 0 0 0 0 0 1 0 0 0    
17/09/2020 1 0 0 0 0 0 0 0 0 0 0 1 1 0 0 0 0 0 0 0 0 0 0 0 0 0 0 0 0 0 0 0    
18/09/2020 0 0 0 0 1 0 0 0 0 0 0 1 0 0 0 0 0 0 0 0 0 0 0 0 0 0 0 0 0 0 0 0    
19/09/2020 0 0 0 0 1 1 0 0 0 0 0 1 0 0 0 0 0 0 0 0 0 0 0 0 0 0 0 0 0 0 0 0    
20/09/2020 1 0 0 0 0 0 0 0 0 0 0 1 0 0 0 0 0 0 0 0 0 0 0 0 0 0 0 0 0 0 1 0    
21/09/2020 0 0 0 0 1 1 0 0 0 0 0 1 0 0 0 0 0 0 0 0 0 0 0 0 0 0 0 0 0 0 1 0    
22/09/2020 0 0 0 0 0 0 0 0 0 0 0 0 0 0 0 0 0 0 0 0 0 0 0 0 0 0 0 0 0 0 0 0    
                                                                     
                                                                     
                                                                     
                                                                     
                                                                     
                                                                     
                                                                         
                                                                     
                                                                     
   
  Rafales >= 36,0 km/h Rafales >= 57,6 km/h Rafales >= 75,6 km/h Rafales >= 100,8 km/h Précipi. >= 0,1 mm Précipi. >= 1,0 mm Précipi. >= 5,0 mm Précipi. >= 10,0 mm Tx <=0 Tx <= -5 Tx <= -10 Tx >= 25 Tx >= 30 Tx >= 35 Tx >= 40 Tn <= 0 Tn <= -5 Tn <= -10 Tn <= -15 Tn <= -20 T moy <= 0 T moy <=  -5 T moy <=  -10 T moy >= 20 T moy >= 25 T moy >= 30 Grêle Grésil Brouillard Brume Orage Neige        
Total 4 0 0 0 5 2 0 0 0 0 0 15 6 0 0 0 0 0 0 0 0 0 0 0 0 0 0 0 2 0 2 0